createdAt,value
2022-08-09T00:01:42.825Z,100052.22
2022-08-09T00:04:35.165Z,100063.84
2022-08-09T00:07:07.745Z,100060.59
2022-08-09T00:09:39.202Z,100060.97
2022-08-09T00:12:22.542Z,100074.25
2022-08-09T00:15:06.939Z,100072.91
2022-08-09T00:18:05.260Z,100071.25
2022-08-09T00:20:22.990Z,100078.75
2022-08-09T00:22:50.388Z,100079.91
2022-08-09T00:25:23.503Z,100067.31
2022-08-09T00:28:00.486Z,100074.41
2022-08-09T00:30:31.090Z,100072.63
2022-08-09T00:32:58.032Z,100074.41
2022-08-09T00:35:26.479Z,100061.94
2022-08-09T00:37:56.867Z,100066.59
2022-08-09T00:40:30.361Z,100055.69
2022-08-09T00:44:16.858Z,100063.81
2022-08-09T00:45:54.110Z,100068.56
2022-08-09T00:48:21.560Z,100060.72
2022-08-09T00:50:52.208Z,100059.84
2022-08-09T00:53:24.240Z,100058.22
2022-08-09T00:55:54.348Z,100065.19
2022-08-09T00:58:33.153Z,100064.22
2022-08-09T01:01:11.158Z,100057.53
2022-08-09T01:03:56.686Z,100052.91
2022-08-09T01:06:54.638Z,100070.47
2022-08-09T01:09:36.512Z,100070.69
2022-08-09T01:12:29.666Z,100063.94
2022-08-09T01:15:16.640Z,100062.91
2022-08-09T01:17:57.703Z,100075.66
2022-08-09T01:20:39.931Z,100045.09
2022-08-09T01:24:00.638Z,100057.59
2022-08-09T01:27:02.799Z,100073.56
2022-08-09T01:32:54.700Z,100083.81
2022-08-09T01:35:42.533Z,100081.56
2022-08-09T01:38:15.765Z,100084.44
2022-08-09T01:41:04.797Z,100082.72
2022-08-09T01:43:50.493Z,100087.28
2022-08-09T01:46:24.679Z,100086.50
2022-08-09T01:49:14.715Z,100083.75
2022-08-09T01:51:54.332Z,100075.16
2022-08-09T01:54:32.494Z,100081.94
2022-08-09T01:57:20.491Z,100091.16
2022-08-09T01:59:53.480Z,100083.84
2022-08-09T02:02:33.012Z,100081.28
2022-08-09T02:05:15.205Z,100093.00
2022-08-09T02:08:38.550Z,100075.50
2022-08-09T02:10:51.282Z,100085.41
2022-08-09T02:13:26.157Z,100097.00
2022-08-09T02:16:20.517Z,100109.38
2022-08-09T02:19:01.900Z,100097.25
2022-08-09T02:21:38.356Z,100107.44
2022-08-09T02:24:26.349Z,100105.28
2022-08-09T02:27:01.375Z,100095.19
2022-08-09T02:29:37.225Z,100109.84
2022-08-09T02:32:10.921Z,100099.78
2022-08-09T02:34:51.863Z,100102.31
2022-08-09T02:37:31.802Z,100114.84
2022-08-09T02:40:12.496Z,100116.81
2022-08-09T02:42:45.925Z,100119.00
2022-08-09T02:45:26.598Z,100114.00
2022-08-09T02:48:03.373Z,100109.25
2022-08-09T02:50:37.967Z,100110.09
2022-08-09T02:53:26.328Z,100102.66
2022-08-09T02:55:59.074Z,100110.38
2022-08-09T02:58:37.468Z,100099.31
2022-08-09T03:01:11.011Z,100102.91
2022-08-09T03:04:17.193Z,100099.31
2022-08-09T03:06:36.247Z,100090.72
2022-08-09T03:09:07.378Z,100107.78
2022-08-09T03:12:05.765Z,100104.81
2022-08-09T03:14:28.467Z,100105.13
2022-08-09T03:16:58.726Z,100102.72
2022-08-09T03:19:52.487Z,100104.13
2022-08-09T03:22:41.480Z,100106.34
2022-08-09T03:25:26.365Z,100100.47
2022-08-09T03:27:56.866Z,100098.81
2022-08-09T03:30:32.953Z,100111.16
2022-08-09T03:33:05.739Z,100083.38
2022-08-09T03:36:12.737Z,100087.78
2022-08-09T03:38:34.874Z,100111.75
2022-08-09T03:41:02.837Z,100105.50
2022-08-09T03:43:31.966Z,100108.56
2022-08-09T03:46:04.918Z,100108.31
2022-08-09T03:48:54.971Z,100090.28
2022-08-09T03:51:43.882Z,100121.84
2022-08-09T03:54:14.496Z,100122.94
2022-08-09T03:56:42.795Z,100126.25
2022-08-09T03:59:20.800Z,100124.75
2022-08-09T04:01:56.458Z,100123.50
2022-08-09T04:04:27.525Z,100126.00
2022-08-09T04:07:05.310Z,100123.78
2022-08-09T04:09:48.170Z,100127.78
2022-08-09T04:12:44.938Z,100129.84
2022-08-09T04:15:29.553Z,100141.22
2022-08-09T04:18:01.567Z,100138.88
2022-08-09T04:20:28.960Z,100140.09
2022-08-09T04:22:57.941Z,100136.47
2022-08-09T04:25:26.421Z,100146.16
2022-08-09T04:27:53.490Z,100151.19
2022-08-09T04:30:28.804Z,100148.63
2022-08-09T04:32:57.710Z,100152.41
2022-08-09T04:35:24.730Z,100153.00
2022-08-09T04:37:57.911Z,100146.03
2022-08-09T04:40:36.168Z,100161.41
2022-08-09T04:43:04.069Z,100167.09
2022-08-09T04:45:36.253Z,100173.66
2022-08-09T04:48:19.598Z,100178.09
2022-08-09T04:50:46.587Z,100186.53
2022-08-09T04:53:18.846Z,100185.44
2022-08-09T04:55:58.762Z,100187.63
2022-08-09T04:58:27.688Z,100187.50
2022-08-09T05:00:55.127Z,100188.84
2022-08-09T05:03:40.035Z,100201.97
2022-08-09T05:06:10.224Z,100187.59
2022-08-09T05:08:47.670Z,100202.50
2022-08-09T05:11:15.428Z,100185.25
2022-08-09T05:13:43.832Z,100201.25
2022-08-09T05:16:11.057Z,100201.63
2022-08-09T05:18:58.730Z,100197.19
2022-08-09T05:21:29.872Z,100197.56
2022-08-09T05:24:01.911Z,100208.13
2022-08-09T05:26:37.192Z,100191.81
2022-08-09T05:29:17.544Z,100200.03
2022-08-09T05:31:57.415Z,100214.03
2022-08-09T05:34:30.578Z,100208.44
2022-08-09T05:37:05.273Z,100218.53
2022-08-09T05:39:46.943Z,100227.28
2022-08-09T05:42:17.692Z,100228.38
2022-08-09T05:44:50.992Z,100228.88
2022-08-09T05:47:18.753Z,100219.59
2022-08-09T05:50:29.895Z,100225.50
2022-08-09T05:52:33.095Z,100235.00
2022-08-09T05:55:03.006Z,100246.81
2022-08-09T05:57:50.718Z,100245.63
2022-08-09T06:00:22.284Z,100258.13
2022-08-09T06:02:54.145Z,100251.03
2022-08-09T06:05:31.306Z,100253.75
2022-08-09T06:08:10.950Z,100249.78
2022-08-09T06:10:40.129Z,100248.88
2022-08-09T06:13:18.795Z,100259.84
2022-08-09T06:15:51.008Z,100260.03
2022-08-09T06:18:25.159Z,100262.88
2022-08-09T06:21:08.801Z,100257.38
2022-08-09T06:23:55.655Z,100254.06
2022-08-09T06:26:30.021Z,100262.38
2022-08-09T06:29:00.662Z,100259.78
2022-08-09T06:31:30.607Z,100261.16
2022-08-09T06:33:58.968Z,100271.53
2022-08-09T06:36:27.158Z,100268.63
2022-08-09T06:38:54.659Z,100269.56
2022-08-09T06:42:07.479Z,100276.94
2022-08-09T06:44:18.226Z,100272.41
2022-08-09T06:46:45.665Z,100278.41
2022-08-09T06:49:12.858Z,100268.44
2022-08-09T06:51:50.019Z,100279.16
2022-08-09T06:54:18.157Z,100278.94
2022-08-09T06:56:48.605Z,100277.50
2022-08-09T07:00:54.464Z,100271.06
2022-08-09T07:02:04.566Z,100276.78
2022-08-09T07:04:32.709Z,100276.53
2022-08-09T07:06:59.935Z,100275.38
2022-08-09T07:09:55.041Z,100278.53
2022-08-09T07:12:18.004Z,100280.63
2022-08-09T07:14:51.444Z,100281.16
2022-08-09T07:17:21.451Z,100281.13
2022-08-09T07:19:50.948Z,100282.38
2022-08-09T07:22:34.312Z,100285.38
2022-08-09T07:25:05.467Z,100280.03
2022-08-09T07:27:42.444Z,100285.69
2022-08-09T07:30:21.760Z,100283.44
2022-08-09T07:32:51.806Z,100283.44
2022-08-09T07:35:19.450Z,100282.25
2022-08-09T07:37:48.013Z,100291.22
2022-08-09T07:40:20.691Z,100300.97
2022-08-09T07:42:58.600Z,100289.19
2022-08-09T07:45:38.028Z,100299.84
2022-08-09T07:48:28.898Z,100296.94
2022-08-09T07:51:09.802Z,100298.53
2022-08-09T07:54:04.228Z,100297.81
2022-08-09T07:56:31.233Z,100293.72
2022-08-09T07:58:59.836Z,100292.09
2022-08-09T08:01:33.094Z,100300.25
2022-08-09T08:04:02.259Z,100295.88
2022-08-09T08:06:31.645Z,100294.78
2022-08-09T08:09:04.475Z,100297.47
2022-08-09T08:12:09.714Z,100295.88
2022-08-09T08:14:21.163Z,100289.22
2022-08-09T08:17:07.394Z,100291.25
2022-08-09T08:19:36.317Z,100283.78
2022-08-09T08:22:05.007Z,100285.22
2022-08-09T08:24:40.143Z,100290.25
2022-08-09T08:27:44.696Z,100286.34
2022-08-09T08:30:18.422Z,100288.28
2022-08-09T08:32:53.570Z,100283.38
2022-08-09T08:35:22.162Z,100282.56
2022-08-09T08:37:59.869Z,100276.41
2022-08-09T08:40:33.162Z,100278.75
2022-08-09T08:43:03.296Z,100275.69
2022-08-09T08:45:51.613Z,100272.59
2022-08-09T08:48:29.224Z,100266.22
2022-08-09T08:50:58.807Z,100272.56
2022-08-09T08:53:32.303Z,100269.59
2022-08-09T08:56:05.201Z,100281.16
2022-08-09T08:58:36.120Z,100274.53
2022-08-09T09:01:08.901Z,100278.97
2022-08-09T09:03:50.596Z,100276.81
2022-08-09T09:06:19.326Z,100276.34
2022-08-09T09:08:52.531Z,100276.72
2022-08-09T09:11:20.657Z,100272.91
2022-08-09T09:13:57.274Z,100275.75
2022-08-09T09:16:31.061Z,100261.06
2022-08-09T09:19:36.508Z,100269.31
2022-08-09T09:22:05.237Z,100264.84
2022-08-09T09:24:38.798Z,100259.06
2022-08-09T09:27:09.531Z,100251.44
2022-08-09T09:30:28.902Z,100248.47
2022-08-09T09:33:02.506Z,100246.38
2022-08-09T09:36:02.382Z,100249.16
2022-08-09T09:38:46.438Z,100250.59
2022-08-09T09:41:33.094Z,100246.00
2022-08-09T09:44:12.345Z,100239.84
2022-08-09T09:46:50.735Z,100240.75
2022-08-09T09:49:49.732Z,100242.28
2022-08-09T09:52:35.730Z,100242.53
2022-08-09T09:55:28.743Z,100235.44
2022-08-09T09:58:02.195Z,100236.56
2022-08-09T10:00:32.395Z,100232.69
2022-08-09T10:03:11.512Z,100231.00
2022-08-09T10:06:03.262Z,100249.66
2022-08-09T10:08:31.139Z,100245.94
2022-08-09T10:12:00.495Z,100252.31
2022-08-09T10:14:37.482Z,100232.88
2022-08-09T10:17:39.110Z,100235.94
2022-08-09T10:20:00.483Z,100234.03
2022-08-09T10:22:35.745Z,100227.94
2022-08-09T10:25:11.213Z,100236.88
2022-08-09T10:27:45.376Z,100226.56
2022-08-09T10:34:04.848Z,100233.38
2022-08-09T10:36:02.601Z,100212.44
2022-08-09T10:38:55.400Z,100217.19
2022-08-09T10:41:20.497Z,100208.81
2022-08-09T10:44:01.201Z,100201.97
2022-08-09T10:47:03.993Z,100207.78
2022-08-09T10:50:03.350Z,100212.28
2022-08-09T10:53:03.953Z,100216.09
2022-08-09T10:55:54.937Z,100204.19
2022-08-09T10:58:30.902Z,100204.63
2022-08-09T11:03:02.388Z,100200.44
2022-08-09T11:04:19.903Z,100210.13
2022-08-09T11:07:57.671Z,100204.59
2022-08-09T11:10:57.790Z,100206.09
2022-08-09T11:13:53.813Z,100206.78
2022-08-09T11:16:38.363Z,100211.16
2022-08-09T11:19:10.073Z,100204.13
2022-08-09T11:21:57.440Z,100202.41
2022-08-09T11:25:05.032Z,100211.69
2022-08-09T11:28:05.017Z,100201.25
2022-08-09T11:30:35.973Z,100189.72
2022-08-09T11:33:10.712Z,100195.06
2022-08-09T11:35:49.468Z,100193.41
2022-08-09T11:38:22.261Z,100184.53
2022-08-09T11:40:54.734Z,100187.59
2022-08-09T11:48:26.178Z,100189.72
2022-08-09T11:51:21.342Z,100188.22
2022-08-09T11:54:14.403Z,100175.84
2022-08-09T11:56:48.925Z,100167.13
2022-08-09T11:59:30.184Z,100174.50
2022-08-09T12:02:37.291Z,100161.75
2022-08-09T12:05:07.160Z,100167.72
2022-08-09T12:08:35.114Z,100164.72
2022-08-09T12:11:02.136Z,100163.44
2022-08-09T12:14:10.581Z,100167.19
2022-08-09T12:16:38.187Z,100166.03
2022-08-09T12:19:08.325Z,100171.50
2022-08-09T12:21:48.568Z,100169.84
2022-08-09T12:24:25.166Z,100163.44
2022-08-09T12:31:59.433Z,100160.91
2022-08-09T12:34:09.887Z,100162.72
2022-08-09T12:40:59.286Z,100152.69
2022-08-09T12:48:27.905Z,100131.81
2022-08-09T12:50:59.802Z,100154.47
2022-08-09T12:54:00.713Z,100135.94
2022-08-09T12:56:56.722Z,100146.28
2022-08-09T12:59:24.708Z,100136.09
2022-08-09T13:02:10.704Z,100140.81
2022-08-09T13:04:59.494Z,100141.91
2022-08-09T13:07:50.971Z,100139.81
2022-08-09T13:10:16.650Z,100132.22
2022-08-09T13:13:10.211Z,100141.63
2022-08-09T13:15:35.856Z,100136.13
2022-08-09T13:18:05.881Z,100121.50
2022-08-09T13:22:33.731Z,100120.72
2022-08-09T13:24:15.623Z,100127.63
2022-08-09T13:26:36.497Z,100137.44
2022-08-09T13:29:13.265Z,100121.50
2022-08-09T13:32:20.024Z,100116.75
2022-08-09T13:34:46.188Z,100126.47
2022-08-09T13:37:13.443Z,100123.88
2022-08-09T13:41:56.539Z,100105.66
2022-08-09T13:42:40.640Z,100109.13
2022-08-09T13:45:13.027Z,100125.25
2022-08-09T13:47:49.138Z,100127.13
2022-08-09T13:50:31.033Z,100109.16
2022-08-09T13:52:59.197Z,100098.66
2022-08-09T13:55:29.039Z,100101.00
2022-08-09T13:57:58.344Z,100100.00
2022-08-09T14:00:29.700Z,100094.69
2022-08-09T14:03:57.800Z,100106.19
2022-08-09T14:05:56.526Z,100122.47
2022-08-09T14:08:30.329Z,100103.06
2022-08-09T14:10:57.830Z,100109.13
2022-08-09T14:13:28.221Z,100109.91
2022-08-09T14:16:20.226Z,100106.00
2022-08-09T14:18:58.172Z,100111.72
2022-08-09T14:21:29.182Z,100097.53
2022-08-09T14:23:57.507Z,100105.22
2022-08-09T14:26:32.415Z,100100.38
2022-08-09T14:29:03.595Z,100105.97
2022-08-09T14:31:50.209Z,100093.72
2022-08-09T14:34:30.798Z,100100.94
2022-08-09T14:37:00.509Z,100093.44
2022-08-09T14:39:46.157Z,100089.25
2022-08-09T14:42:29.104Z,100091.56
2022-08-09T14:45:16.342Z,100091.25
2022-08-09T14:47:57.861Z,100088.50
2022-08-09T14:50:31.077Z,100096.44
2022-08-09T14:52:59.869Z,100084.03
2022-08-09T14:55:29.205Z,100083.78
2022-08-09T14:57:59.405Z,100099.91
2022-08-09T15:00:27.013Z,100075.22
2022-08-09T15:02:58.549Z,100078.88
2022-08-09T15:05:27.211Z,100083.72
2022-08-09T15:07:55.935Z,100072.22
2022-08-09T15:10:25.108Z,100072.59
2022-08-09T15:12:52.336Z,100085.00
2022-08-09T15:15:20.150Z,100086.31
2022-08-09T15:17:52.576Z,100076.03
2022-08-09T15:21:57.106Z,100086.56
2022-08-09T15:24:01.528Z,100086.06
2022-08-09T15:25:56.984Z,100082.41
2022-08-09T15:28:28.429Z,100068.00
2022-08-09T15:31:10.320Z,100062.41
2022-08-09T15:34:17.514Z,100060.66
2022-08-09T15:36:31.561Z,100061.03
2022-08-09T15:38:59.863Z,100059.31
2022-08-09T15:41:31.684Z,100077.25
2022-08-09T15:43:59.944Z,100064.56
2022-08-09T15:46:32.589Z,100058.78
2022-08-09T15:49:22.558Z,100062.44
2022-08-09T15:52:03.773Z,100067.53
2022-08-09T15:54:48.369Z,100062.75
2022-08-09T15:57:19.191Z,100065.31
2022-08-09T16:00:04.123Z,100059.56
2022-08-09T16:02:31.629Z,100060.06
2022-08-09T16:04:58.504Z,100056.47
2022-08-09T16:07:30.823Z,100060.72
2022-08-09T16:10:11.198Z,100065.19
2022-08-09T16:12:50.622Z,100055.00
2022-08-09T16:16:10.541Z,100055.00
2022-08-09T16:18:07.693Z,100052.56
2022-08-09T16:20:35.649Z,100069.78
2022-08-09T16:23:06.371Z,100060.91
2022-08-09T16:25:39.476Z,100052.78
2022-08-09T16:28:08.225Z,100053.34
2022-08-09T16:30:40.953Z,100052.66
2022-08-09T16:33:12.115Z,100057.16
2022-08-09T16:35:56.351Z,100060.69
2022-08-09T16:38:27.261Z,100058.00
2022-08-09T16:40:54.255Z,100059.66
2022-08-09T16:43:22.749Z,100050.19
2022-08-09T16:45:53.725Z,100067.50
2022-08-09T16:48:38.160Z,100065.28
2022-08-09T16:51:14.301Z,100061.69
2022-08-09T16:54:16.082Z,100062.72
2022-08-09T16:56:31.085Z,100054.44
2022-08-09T16:58:59.181Z,100068.31
2022-08-09T17:01:28.308Z,100078.91
2022-08-09T17:04:01.709Z,100062.19
2022-08-09T17:06:33.308Z,100065.09
2022-08-09T17:09:12.173Z,100059.59
2022-08-09T17:11:52.665Z,100066.97
2022-08-09T17:14:28.162Z,100064.94
2022-08-09T17:16:59.654Z,100061.06
2022-08-09T17:20:05.123Z,100059.25
2022-08-09T17:22:24.856Z,100058.22
2022-08-09T17:25:10.179Z,100053.31
2022-08-09T17:27:49.102Z,100057.00
2022-08-09T17:30:16.877Z,100069.66
2022-08-09T17:32:47.408Z,100068.78
2022-08-09T17:35:14.581Z,100067.38
2022-08-09T17:38:02.150Z,100062.50
2022-08-09T17:40:34.701Z,100064.81
2022-08-09T17:43:33.154Z,100068.72
2022-08-09T17:46:03.202Z,100071.41
2022-08-09T17:48:34.444Z,100060.13
2022-08-09T17:51:09.564Z,100061.75
2022-08-09T17:53:51.746Z,100060.16
2022-08-09T17:56:27.668Z,100066.16
2022-08-09T17:59:03.307Z,100074.03
2022-08-09T18:01:57.972Z,100078.63
2022-08-09T18:04:24.695Z,100077.81
2022-08-09T18:06:54.766Z,100084.88
2022-08-09T18:09:23.765Z,100076.66
2022-08-09T18:12:14.978Z,100082.88
2022-08-09T18:14:49.648Z,100075.47
2022-08-09T18:17:27.046Z,100079.84
2022-08-09T18:20:54.252Z,100077.41
2022-08-09T18:22:56.378Z,100078.47
2022-08-09T18:25:50.052Z,100069.22
2022-08-09T18:31:10.590Z,100076.94
2022-08-09T18:33:37.641Z,100086.81
2022-08-09T18:36:09.194Z,100086.44
2022-08-09T18:38:56.255Z,100086.25
2022-08-09T18:41:28.142Z,100083.97
2022-08-09T18:43:56.175Z,100093.50
2022-08-09T18:46:47.436Z,100092.25
2022-08-09T18:49:10.416Z,100093.56
2022-08-09T18:51:38.122Z,100102.19
2022-08-09T18:54:08.549Z,100105.50
2022-08-09T18:56:45.020Z,100099.34
2022-08-09T18:59:22.669Z,100110.25
2022-08-09T19:01:52.488Z,100112.13
2022-08-09T19:04:34.697Z,100110.88
2022-08-09T19:07:02.834Z,100115.41
2022-08-09T19:10:14.927Z,100108.81
2022-08-09T19:12:41.825Z,100105.09
2022-08-09T19:15:19.544Z,100114.56
2022-08-09T19:17:56.449Z,100128.34
2022-08-09T19:20:25.871Z,100127.28
2022-08-09T19:22:54.379Z,100120.66
2022-08-09T19:25:41.378Z,100131.78
2022-08-09T19:28:13.402Z,100126.63
2022-08-09T19:30:44.511Z,100140.38
2022-08-09T19:33:19.053Z,100140.75
2022-08-09T19:35:57.149Z,100132.47
2022-08-09T19:38:26.532Z,100132.91
2022-08-09T19:40:54.127Z,100135.75
2022-08-09T19:44:00.592Z,100127.53
2022-08-09T19:46:14.763Z,100126.47
2022-08-09T19:49:01.005Z,100131.41
2022-08-09T19:51:30.910Z,100136.28
2022-08-09T19:53:58.600Z,100135.41
2022-08-09T19:56:28.809Z,100136.81
2022-08-09T19:59:39.992Z,100136.81
2022-08-09T20:01:52.506Z,100139.50
2022-08-09T20:04:37.323Z,100131.03
2022-08-09T20:07:08.189Z,100144.16
2022-08-09T20:09:43.773Z,100135.13
2022-08-09T20:12:29.802Z,100138.75
2022-08-09T20:14:58.970Z,100145.53
2022-08-09T20:17:31.032Z,100136.84
2022-08-09T20:20:15.563Z,100139.91
2022-08-09T20:22:46.286Z,100143.59
2022-08-09T20:25:13.513Z,100141.53
2022-08-09T20:27:50.173Z,100133.69
2022-08-09T20:30:21.630Z,100138.19
2022-08-09T20:32:52.601Z,100134.34
2022-08-09T20:35:20.254Z,100145.50
2022-08-09T20:38:20.731Z,100145.00
2022-08-09T20:40:36.613Z,100135.25
2022-08-09T20:43:18.383Z,100150.25
2022-08-09T20:46:00.403Z,100151.34
2022-08-09T20:48:42.015Z,100143.44
2022-08-09T20:51:19.091Z,100154.06
2022-08-09T20:53:46.701Z,100149.25
2022-08-09T20:56:21.271Z,100148.34
2022-08-09T20:58:50.525Z,100155.72
2022-08-09T21:01:34.726Z,100149.09
2022-08-09T21:05:52.139Z,100156.31
2022-08-09T21:06:58.710Z,100158.88
2022-08-09T21:09:41.891Z,100156.53
2022-08-09T21:14:41.794Z,100144.97
2022-08-09T21:18:11.449Z,100152.38
2022-08-09T21:20:22.406Z,100155.22
2022-08-09T21:22:58.166Z,100152.66
2022-08-09T21:25:27.622Z,100151.84
2022-08-09T21:28:07.091Z,100155.97
2022-08-09T21:30:40.214Z,100156.88
2022-08-09T21:33:08.591Z,100152.03
2022-08-09T21:35:41.017Z,100159.63
2022-08-09T21:38:30.840Z,100166.44
2022-08-09T21:40:58.536Z,100162.75
2022-08-09T21:43:46.586Z,100163.59
2022-08-09T21:46:13.671Z,100167.06
2022-08-09T21:48:42.567Z,100163.19
2022-08-09T21:51:18.113Z,100160.81
2022-08-09T21:53:53.459Z,100168.16
2022-08-09T21:56:33.662Z,100165.47
2022-08-09T21:59:07.678Z,100165.94
2022-08-09T22:01:59.030Z,100169.94
2022-08-09T22:04:21.408Z,100157.16
2022-08-09T22:07:10.211Z,100164.72
2022-08-09T22:09:43.534Z,100172.06
2022-08-09T22:12:24.608Z,100174.09
2022-08-09T22:14:57.836Z,100164.03
2022-08-09T22:17:25.209Z,100173.84
2022-08-09T22:19:58.634Z,100175.63
2022-08-09T22:22:28.847Z,100168.69
2022-08-09T22:26:06.493Z,100175.06
2022-08-09T22:27:42.687Z,100178.09
2022-08-09T22:30:11.938Z,100181.44
2022-08-09T22:32:38.802Z,100177.13
2022-08-09T22:36:01.739Z,100179.59
2022-08-09T22:38:03.404Z,100179.31
2022-08-09T22:40:35.110Z,100183.81
2022-08-09T22:43:16.120Z,100187.16
2022-08-09T22:48:13.131Z,100184.72
2022-08-09T22:48:37.140Z,100179.75
2022-08-09T22:51:10.767Z,100182.53
2022-08-09T22:54:02.563Z,100181.69
2022-08-09T22:56:33.956Z,100185.19
2022-08-09T22:59:05.777Z,100179.03
2022-08-09T23:01:49.737Z,100179.03
2022-08-09T23:04:17.242Z,100179.84
2022-08-09T23:06:44.585Z,100185.47
2022-08-09T23:09:13.615Z,100183.88
2022-08-09T23:11:41.005Z,100195.97
2022-08-09T23:14:10.194Z,100189.66
2022-08-09T23:16:44.141Z,100192.19
2022-08-09T23:19:11.340Z,100188.38
2022-08-09T23:21:39.320Z,100189.34
2022-08-09T23:24:07.936Z,100191.47
2022-08-09T23:26:38.278Z,100186.53
2022-08-09T23:29:06.875Z,100190.97
2022-08-09T23:31:34.760Z,100188.31
2022-08-09T23:34:02.596Z,100178.72
2022-08-09T23:36:31.714Z,100172.78
2022-08-09T23:38:58.891Z,100178.06
2022-08-09T23:41:27.457Z,100173.75
2022-08-09T23:43:59.470Z,100175.91
2022-08-09T23:46:28.947Z,100178.41
2022-08-09T23:48:56.326Z,100174.41
2022-08-09T23:51:23.453Z,100171.13
2022-08-09T23:53:52.606Z,100175.44
2022-08-09T23:56:52.775Z,100175.44
2022-08-09T23:59:11.235Z,100182.44
